Time;durP1;ratioP1;P1;durP2;ratioP2;P2;SDS_P1;SDS_P2;PMS_P1;PMS_P2;Temp;Humidity;BMP_temperature;BMP_pressure;BME280_temperature;BME280_humidity;BME280_pressure;Samples;Min_cycle;Max_cycle;Signal;HPM_P1;HPM_P2
2022/01/19 00:01:14;;;;;;;13.80;6.93;;;;;;;8.89;65.24;103078.59;4922804;28;97333;-88
2022/01/19 00:03:39;;;;;;;12.67;6.93;;;;;;;8.89;65.42;103084.88;4940841;28;98171;-88
2022/01/19 00:06:05;;;;;;;10.17;6.50;;;;;;;8.91;65.04;103073.47;4920097;28;97117;-88
2022/01/19 00:08:31;;;;;;;12.27;7.03;;;;;;;8.92;65.22;103081.28;4930787;28;97078;-88
2022/01/19 00:10:57;;;;;;;15.33;7.20;;;;;;;8.88;65.19;103080.59;4926145;28;98945;-87
2022/01/19 00:13:22;;;;;;;9.60;6.30;;;;;;;8.87;65.09;103079.03;4923979;28;97107;-88
2022/01/19 00:15:49;;;;;;;13.60;7.03;;;;;;;8.90;65.08;103082.91;4920813;28;98547;-88
2022/01/19 00:18:17;;;;;;;10.87;6.40;;;;;;;8.90;65.01;103074.66;4928296;28;97364;-89
2022/01/19 00:20:43;;;;;;;11.50;6.83;;;;;;;8.90;65.16;103078.19;4923698;28;96782;-88
2022/01/19 00:23:10;;;;;;;16.10;6.90;;;;;;;8.91;65.13;103076.22;4924943;28;97453;-89
2022/01/19 00:25:37;;;;;;;8.07;5.80;;;;;;;8.89;65.11;103089.56;4923499;28;96871;-89
2022/01/19 00:28:03;;;;;;;10.93;6.63;;;;;;;8.88;65.07;103061.38;4936651;28;96956;-89
2022/01/19 00:30:29;;;;;;;9.43;6.50;;;;;;;8.82;65.17;103054.81;4922410;28;98614;-89
2022/01/19 00:32:54;;;;;;;11.53;6.40;;;;;;;8.81;65.11;103067.00;4941044;28;97452;-88
2022/01/19 00:35:20;;;;;;;9.77;6.00;;;;;;;8.84;65.16;103026.94;4936443;28;97118;-88
2022/01/19 00:37:45;;;;;;;11.93;6.67;;;;;;;8.86;65.17;103014.34;4921656;28;97280;-88
2022/01/19 00:40:12;;;;;;;9.13;6.37;;;;;;;8.87;65.08;103037.06;4921128;28;97763;-87
2022/01/19 00:42:38;;;;;;;13.67;6.50;;;;;;;8.86;65.06;103038.28;4936493;28;99626;-90
2022/01/19 00:45:06;;;;;;;9.23;6.20;;;;;;;8.90;65.25;103017.81;4923732;28;96829;-89
2022/01/19 00:47:31;;;;;;;11.07;6.90;;;;;;;8.83;65.14;103012.44;4925314;28;96904;-88
2022/01/19 00:49:57;;;;;;;14.37;7.60;;;;;;;8.85;65.06;103020.25;4937289;28;97337;-89
2022/01/19 00:52:22;;;;;;;14.87;7.03;;;;;;;8.89;65.22;102996.25;4924950;28;97694;-89
2022/01/19 00:54:48;;;;;;;13.60;7.10;;;;;;;8.89;65.04;103020.94;4927421;28;97232;-88
2022/01/19 00:57:13;;;;;;;11.70;6.73;;;;;;;8.91;65.14;103013.09;4938571;28;97176;-89
2022/01/19 00:59:39;;;;;;;11.20;6.80;;;;;;;8.90;65.26;103006.81;4925658;28;98260;-89
2022/01/19 01:02:05;;;;;;;14.83;7.73;;;;;;;8.91;64.94;103016.59;4923707;28;99718;-90
2022/01/19 01:04:32;;;;;;;13.27;7.27;;;;;;;8.93;64.93;102983.25;4923779;28;96984;-90
2022/01/19 01:06:57;;;;;;;11.13;7.00;;;;;;;8.87;64.94;102988.44;4922752;28;96984;-89
2022/01/19 01:09:23;;;;;;;14.10;7.37;;;;;;;8.86;65.29;102986.91;4939305;28;96818;-89
2022/01/19 01:12:02;;;;;;;11.40;6.80;;;;;;;8.86;65.07;102989.66;4925757;28;98202;-89
2022/01/19 01:20:00;;;;;;;14.17;7.77;;;;;;;8.86;65.05;102975.16;4924589;28;101527;-88
2022/01/19 01:22:25;;;;;;;15.60;7.37;;;;;;;8.87;65.15;102968.44;4929197;28;97230;-88
2022/01/19 01:24:51;;;;;;;14.40;7.27;;;;;;;8.87;65.05;102962.94;4919954;28;96938;-88
2022/01/19 01:27:17;;;;;;;18.73;7.73;;;;;;;8.89;64.99;102969.56;4939296;28;96908;-90
2022/01/19 01:29:42;;;;;;;14.03;7.63;;;;;;;8.88;65.04;102968.03;4921596;28;97209;-88
2022/01/19 01:32:08;;;;;;;14.83;7.50;;;;;;;8.85;65.20;102949.66;4923164;28;96699;-89
2022/01/19 01:34:34;;;;;;;13.47;7.80;;;;;;;8.84;65.13;102955.59;4921035;28;97053;-90
2022/01/19 01:37:00;;;;;;;11.80;8.40;;;;;;;8.81;65.28;102939.94;4918320;28;97542;-88
2022/01/19 01:39:26;;;;;;;12.90;7.93;;;;;;;8.85;65.15;102948.88;4922365;28;97588;-89
2022/01/19 01:41:51;;;;;;;14.70;7.87;;;;;;;8.80;65.06;102944.66;4923957;28;97337;-88
2022/01/19 01:44:17;;;;;;;13.53;7.80;;;;;;;8.82;65.06;102914.06;4921098;28;96975;-89
2022/01/19 01:46:45;;;;;;;17.00;8.40;;;;;;;8.79;65.07;102906.66;4925792;28;96838;-88
2022/01/19 01:49:17;;;;;;;12.03;7.57;;;;;;;8.84;64.95;102895.97;4923712;28;101899;-89
2022/01/19 01:54:26;;;;;;;15.30;7.53;;;;;;;8.87;65.13;102886.88;4921376;28;97218;-89
2022/01/19 01:56:53;;;;;;;17.43;8.27;;;;;;;8.88;65.08;102874.69;4936734;28;96600;-89
2022/01/19 01:59:18;;;;;;;12.13;7.03;;;;;;;8.87;64.98;102875.88;4927625;28;102164;-88
2022/01/19 02:01:44;;;;;;;14.40;8.50;;;;;;;8.88;65.02;102890.41;4924565;28;99523;-88
2022/01/19 02:04:10;;;;;;;15.17;7.80;;;;;;;8.88;64.77;102901.38;4916647;28;96939;-89
2022/01/19 02:06:57;;;;;;;16.07;8.67;;;;;;;8.88;65.03;102899.41;4925311;28;96980;-89
2022/01/19 02:09:25;;;;;;;13.47;8.40;;;;;;;8.86;64.89;102881.81;4920535;28;101064;-89
2022/01/19 02:22:58;;;;;;;14.00;7.43;;;;;;;8.88;65.06;102830.78;4921703;28;100031;-89
2022/01/19 02:25:28;;;;;;;11.80;7.27;;;;;;;8.91;64.71;102827.16;4923695;28;96854;-87
2022/01/19 02:41:16;;;;;;;17.80;8.67;;;;;;;8.80;64.93;102779.22;4927238;28;97214;-90
2022/01/19 02:43:46;;;;;;;20.30;8.70;;;;;;;8.83;64.86;102776.38;4914837;28;98125;-89
2022/01/19 02:51:56;;;;;;;13.47;8.60;;;;;;;8.82;64.60;102769.34;4859493;28;102169;-88
2022/01/19 02:54:24;;;;;;;17.90;9.00;;;;;;;8.83;64.88;102779.13;4923755;28;99678;-89
2022/01/19 02:56:53;;;;;;;13.47;8.23;;;;;;;8.85;64.85;102756.72;4936617;28;97371;-89
2022/01/19 03:10:04;;;;;;;18.93;9.70;;;;;;;8.92;64.55;102740.09;4925392;28;96906;-89
2022/01/19 03:12:29;;;;;;;15.73;8.53;;;;;;;8.92;64.66;102724.41;4942367;28;98684;-89
2022/01/19 03:14:55;;;;;;;21.83;9.60;;;;;;;8.93;64.67;102714.19;4924989;28;98487;-88
2022/01/19 03:17:20;;;;;;;24.23;10.30;;;;;;;8.93;64.58;102722.44;4925720;28;96948;-88
2022/01/19 03:19:46;;;;;;;16.97;9.23;;;;;;;8.88;64.79;102712.75;4927794;28;96932;-90
2022/01/19 03:22:12;;;;;;;18.70;10.00;;;;;;;8.93;64.62;102709.47;4923431;28;99528;-88
2022/01/19 03:24:39;;;;;;;18.60;10.03;;;;;;;8.97;64.50;102701.16;4927157;28;98457;-89
2022/01/19 03:27:06;;;;;;;14.80;9.07;;;;;;;8.92;64.78;102682.44;4924294;28;97063;-88
2022/01/19 03:29:31;;;;;;;17.97;8.80;;;;;;;8.99;64.38;102694.03;4939362;28;96882;-88
2022/01/19 03:31:57;;;;;;;13.70;8.83;;;;;;;8.99;64.56;102691.28;4923390;28;97522;-88
2022/01/19 03:34:22;;;;;;;17.30;9.50;;;;;;;9.01;64.56;102699.09;4927809;28;97242;-89
2022/01/19 03:36:48;;;;;;;18.00;9.50;;;;;;;9.00;64.47;102689.28;4926097;28;96961;-88
2022/01/19 03:39:13;;;;;;;18.77;10.10;;;;;;;9.01;64.51;102682.59;4937112;28;96920;-88
2022/01/19 03:41:39;;;;;;;16.80;9.00;;;;;;;9.00;64.57;102676.34;4924269;28;99485;-88
2022/01/19 03:44:04;;;;;;;15.73;9.00;;;;;;;8.98;64.40;102664.25;4917553;28;97740;-89
2022/01/19 03:46:34;;;;;;;22.20;8.77;;;;;;;8.96;64.44;102659.19;4934748;28;96943;-88
2022/01/19 03:49:10;;;;;;;24.40;8.87;;;;;;;8.94;64.71;102645.13;4925635;28;97003;-89
2022/01/19 03:51:36;;;;;;;15.77;9.10;;;;;;;8.93;64.64;102651.06;4923432;28;102299;-89
2022/01/19 03:54:02;;;;;;;13.77;8.07;;;;;;;8.94;64.79;102647.09;4940371;28;99614;-89
2022/01/19 03:56:27;;;;;;;14.80;7.83;;;;;;;8.93;64.73;102629.09;4938372;28;97209;-88
2022/01/19 03:58:52;;;;;;;13.63;8.90;;;;;;;8.92;64.58;102602.84;4922610;28;96997;-88
2022/01/19 04:01:18;;;;;;;15.40;9.17;;;;;;;8.90;64.61;102592.31;4922930;28;100016;-88
2022/01/19 04:09:01;;;;;;;17.13;9.27;;;;;;;8.76;64.67;102595.41;4885890;28;97606;-89
2022/01/19 04:11:26;;;;;;;23.00;10.23;;;;;;;8.75;64.80;102588.41;4909012;28;97645;-89
2022/01/19 04:16:20;;;;;;;18.53;9.03;;;;;;;8.68;64.83;102607.00;4921616;28;96909;-88
2022/01/19 04:18:46;;;;;;;21.53;9.60;;;;;;;8.60;64.40;102586.44;4899639;28;96865;-88
2022/01/19 04:21:13;;;;;;;16.10;9.10;;;;;;;8.53;64.53;102586.63;4903711;28;98092;-88
2022/01/19 04:23:38;;;;;;;15.90;8.83;;;;;;;8.45;64.68;102569.59;4932607;28;97686;-89
2022/01/19 04:26:05;;;;;;;23.27;9.70;;;;;;;8.40;64.44;102578.34;4911774;28;96618;-88
2022/01/19 04:28:31;;;;;;;15.60;9.10;;;;;;;8.33;64.45;102584.00;4925203;28;97018;-88
2022/01/19 04:30:56;;;;;;;20.57;9.43;;;;;;;8.25;64.54;102585.34;4924154;28;96902;-88
2022/01/19 04:33:25;;;;;;;17.13;10.00;;;;;;;8.17;64.48;102564.75;4926261;28;99488;-89
2022/01/19 04:35:53;;;;;;;17.60;9.60;;;;;;;8.09;64.56;102544.22;4927139;28;96789;-88
2022/01/19 05:05:11;;;;;;;25.87;11.47;;;;;;;7.40;64.87;102505.09;4921350;28;97465;-88
2022/01/19 05:07:42;;;;;;;25.93;10.30;;;;;;;7.32;64.71;102476.34;4924344;28;97362;-89
2022/01/19 05:15:24;;;;;;;19.70;9.80;;;;;;;7.24;64.97;102468.69;4922587;28;100102;-89
2022/01/19 05:17:49;;;;;;;26.03;10.90;;;;;;;7.21;64.60;102472.28;4935156;28;97048;-89
2022/01/19 05:20:15;;;;;;;31.47;12.50;;;;;;;7.15;64.74;102468.50;4942765;28;97320;-89
2022/01/19 05:22:40;;;;;;;27.30;11.77;;;;;;;7.11;64.93;102467.81;4921078;28;96915;-88
2022/01/19 05:25:06;;;;;;;30.17;12.30;;;;;;;7.05;64.86;102470.28;4942001;28;96977;-88
2022/01/19 05:27:38;;;;;;;27.40;10.50;;;;;;;7.02;64.68;102459.41;4923043;28;98418;-88
2022/01/19 05:30:06;;;;;;;22.70;10.97;;;;;;;6.99;64.61;102457.53;4909895;28;96998;-87
2022/01/19 05:32:32;;;;;;;31.40;11.50;;;;;;;6.94;64.79;102449.81;4918148;28;97673;-89
2022/01/19 05:34:58;;;;;;;26.10;11.80;;;;;;;6.88;64.54;102446.78;4921468;28;98176;-89
2022/01/19 05:37:23;;;;;;;24.53;11.00;;;;;;;6.85;64.98;102428.50;4925337;28;97257;-88
2022/01/19 05:39:49;;;;;;;24.37;10.93;;;;;;;6.76;64.54;102422.81;4936210;28;97376;-88
2022/01/19 05:42:16;;;;;;;21.27;10.03;;;;;;;6.71;64.62;102417.84;4926431;28;97882;-88
2022/01/19 05:44:43;;;;;;;24.53;11.47;;;;;;;6.64;64.51;102407.81;4921945;28;97437;-88
2022/01/19 05:47:10;;;;;;;31.90;11.03;;;;;;;6.60;64.51;102406.34;4920824;28;97324;-88
2022/01/19 05:49:37;;;;;;;19.67;9.20;;;;;;;6.57;64.79;102412.69;4924462;28;97514;-88
2022/01/19 05:52:05;;;;;;;24.37;11.10;;;;;;;6.47;64.74;102405.44;4924050;28;97781;-89
2022/01/19 05:54:32;;;;;;;22.47;10.40;;;;;;;6.45;64.70;102414.06;4921372;28;98810;-88
2022/01/19 05:56:58;;;;;;;26.97;11.43;;;;;;;6.40;64.67;102381.00;4933597;28;96721;-88
2022/01/19 05:59:24;;;;;;;28.43;11.20;;;;;;;6.33;64.50;102390.09;4940809;28;97306;-88
2022/01/19 06:01:51;;;;;;;24.77;10.30;;;;;;;6.25;64.74;102379.72;4936640;28;102325;-88
2022/01/19 06:04:17;;;;;;;21.57;9.83;;;;;;;6.21;64.65;102392.69;4916068;28;96820;-89
2022/01/19 06:06:43;;;;;;;21.93;10.30;;;;;;;6.15;64.86;102375.22;4923747;28;96993;-88
2022/01/19 06:09:34;;;;;;;21.50;9.90;;;;;;;6.12;64.70;102376.06;4920848;28;97589;-88
2022/01/19 06:12:08;;;;;;;21.90;9.93;;;;;;;6.09;65.04;102376.91;4933516;28;102322;-89
2022/01/19 06:14:37;;;;;;;27.47;11.50;;;;;;;6.05;64.63;102372.28;4904782;28;101339;-88
2022/01/19 06:17:05;;;;;;;23.30;10.00;;;;;;;6.04;64.54;102369.97;4912618;28;98838;-88
2022/01/19 06:19:32;;;;;;;23.70;10.03;;;;;;;5.95;64.57;102365.06;4904425;28;97157;-89
2022/01/19 06:21:59;;;;;;;23.50;11.03;;;;;;;5.86;64.51;102381.22;4909941;28;98178;-89
2022/01/19 06:24:27;;;;;;;24.17;9.17;;;;;;;5.79;64.83;102348.53;4903704;28;98598;-88
2022/01/19 06:26:54;;;;;;;29.47;10.53;;;;;;;5.79;64.58;102350.50;4901658;28;96951;-90
2022/01/19 06:29:24;;;;;;;29.80;9.97;;;;;;;5.73;64.75;102352.94;4911813;28;97034;-88
2022/01/19 06:31:51;;;;;;;27.40;11.63;;;;;;;5.65;64.77;102354.25;4923843;28;100691;-88
2022/01/19 06:34:18;;;;;;;31.90;11.77;;;;;;;5.62;64.72;102362.50;4918716;28;99852;-88
2022/01/19 06:36:45;;;;;;;26.77;10.50;;;;;;;5.56;64.56;102359.47;4930413;28;96951;-89
2022/01/19 06:39:12;;;;;;;30.33;10.83;;;;;;;5.52;64.98;102358.78;4929732;28;97288;-88
2022/01/19 06:41:40;;;;;;;26.30;10.03;;;;;;;5.48;64.79;102374.44;4920471;28;96763;-88
2022/01/19 06:44:07;;;;;;;28.33;10.40;;;;;;;5.41;64.52;102355.44;4916661;28;98383;-88
2022/01/19 06:46:34;;;;;;;25.80;9.87;;;;;;;5.39;64.84;102349.63;4923525;28;97349;-88
2022/01/19 06:49:00;;;;;;;22.77;9.13;;;;;;;5.34;64.75;102339.19;4913105;28;96922;-88
2022/01/19 06:51:26;;;;;;;26.63;9.83;;;;;;;5.31;65.11;102334.53;4893004;28;98102;-88
2022/01/19 06:53:52;;;;;;;25.47;9.70;;;;;;;5.27;64.56;102333.84;4912736;28;98593;-88
2022/01/19 06:56:18;;;;;;;30.53;9.80;;;;;;;5.19;64.89;102337.88;4926777;28;96891;-89
2022/01/19 06:58:45;;;;;;;26.87;8.37;;;;;;;5.17;64.98;102326.59;4925787;28;97319;-88
2022/01/19 07:01:12;;;;;;;22.50;10.10;;;;;;;5.16;64.80;102322.31;4924962;28;96875;-88
2022/01/19 07:03:39;;;;;;;23.37;10.17;;;;;;;5.11;64.59;102320.06;4933571;28;97368;-88
2022/01/19 07:06:07;;;;;;;26.00;10.30;;;;;;;5.03;64.72;102324.84;4940332;28;97337;-89
2022/01/19 07:08:35;;;;;;;23.80;9.57;;;;;;;5.04;64.68;102320.19;4923549;28;96988;-88
2022/01/19 07:11:01;;;;;;;20.83;9.70;;;;;;;5.00;64.74;102314.75;4924202;28;98079;-89
2022/01/19 07:13:27;;;;;;;26.40;8.77;;;;;;;4.97;64.75;102310.16;4927252;28;99581;-88
2022/01/19 07:15:55;;;;;;;18.47;8.97;;;;;;;4.94;64.78;102310.19;4927121;28;97276;-88
2022/01/19 07:18:23;;;;;;;19.87;8.07;;;;;;;4.94;64.44;102305.50;4926993;28;96646;-88
2022/01/19 07:20:50;;;;;;;23.93;8.53;;;;;;;4.91;64.76;102316.47;4944810;28;98546;-88
2022/01/19 07:23:17;;;;;;;27.33;9.40;;;;;;;4.86;64.52;102316.94;4926875;28;97580;-88
2022/01/19 07:25:43;;;;;;;16.03;8.40;;;;;;;4.84;64.67;102319.31;4923626;28;96639;-87
2022/01/19 07:28:11;;;;;;;19.33;8.83;;;;;;;4.83;64.66;102312.31;4922526;28;96797;-88
2022/01/19 07:30:38;;;;;;;22.37;10.23;;;;;;;4.78;64.45;102302.66;4922202;28;97239;-87
2022/01/19 07:33:04;;;;;;;26.13;8.90;;;;;;;4.72;64.48;102298.81;4927649;28;99166;-87
2022/01/19 07:35:31;;;;;;;21.60;9.53;;;;;;;4.68;64.53;102305.50;4940861;28;97018;-88
2022/01/19 07:37:59;;;;;;;21.53;8.60;;;;;;;4.63;64.54;102297.81;4941960;28;97370;-88
2022/01/19 07:40:25;;;;;;;18.00;8.10;;;;;;;4.46;64.47;102289.47;4938516;28;96858;-89
2022/01/19 07:42:53;;;;;;;23.57;9.37;;;;;;;4.57;64.64;102308.38;4928630;28;97167;-88
2022/01/19 07:45:20;;;;;;;24.50;9.13;;;;;;;4.54;64.81;102293.63;4929328;28;96804;-88
2022/01/19 07:47:47;;;;;;;19.20;8.47;;;;;;;4.49;64.73;102280.47;4927239;28;97069;-88
2022/01/19 07:50:14;;;;;;;18.60;8.10;;;;;;;4.49;64.41;102285.16;4927109;28;97599;-88
2022/01/19 07:52:43;;;;;;;17.93;7.80;;;;;;;4.48;65.02;102273.47;4940434;28;96807;-89
2022/01/19 07:55:10;;;;;;;21.13;8.43;;;;;;;4.51;64.90;102304.59;4926650;28;97190;-88
2022/01/19 07:57:40;;;;;;;18.37;7.80;;;;;;;4.53;64.74;102277.69;4940034;28;97530;-88
2022/01/19 08:00:08;;;;;;;16.73;6.70;;;;;;;4.52;65.12;102266.00;4943316;28;98765;-88
2022/01/19 08:02:35;;;;;;;16.37;7.30;;;;;;;4.57;64.88;102273.72;4925974;28;98440;-88
2022/01/19 08:05:03;;;;;;;22.87;8.03;;;;;;;4.56;64.90;102279.59;4926030;28;97102;-88
2022/01/19 08:07:32;;;;;;;19.27;7.83;;;;;;;4.54;64.78;102277.28;4942447;28;97169;-88
2022/01/19 08:10:00;;;;;;;16.40;6.97;;;;;;;4.53;64.77;102264.06;4926102;28;97067;-88
2022/01/19 08:12:28;;;;;;;19.70;8.47;;;;;;;4.52;64.57;102259.81;4943006;28;102154;-88
2022/01/19 08:14:58;;;;;;;17.43;7.90;;;;;;;4.50;64.74;102256.69;4923278;28;96706;-88
2022/01/19 08:17:26;;;;;;;17.33;6.73;;;;;;;4.48;64.89;102262.56;4923393;28;97104;-88
2022/01/19 08:19:55;;;;;;;12.03;6.03;;;;;;;4.50;64.89;102248.53;4938221;28;99789;-89
2022/01/19 08:22:22;;;;;;;18.73;8.40;;;;;;;4.52;65.02;102246.94;4927381;28;97767;-88
2022/01/19 08:24:49;;;;;;;13.87;6.90;;;;;;;4.56;65.13;102250.38;4918511;28;96780;-88
2022/01/19 08:27:17;;;;;;;15.80;7.57;;;;;;;4.60;65.11;102265.91;4938821;28;96956;-88
2022/01/19 08:29:44;;;;;;;11.03;6.30;;;;;;;4.68;65.16;102270.06;4927800;28;102401;-88
2022/01/19 08:32:10;;;;;;;18.17;8.30;;;;;;;4.72;65.02;102254.47;4925471;28;97302;-88
2022/01/19 08:34:36;;;;;;;14.50;7.00;;;;;;;4.77;65.22;102271.09;4937501;28;96963;-88
2022/01/19 08:37:01;;;;;;;15.87;6.83;;;;;;;4.87;65.39;102269.41;4925471;28;96912;-89
2022/01/19 08:39:28;;;;;;;15.90;7.17;;;;;;;4.92;65.25;102266.97;4922947;28;96744;-89
2022/01/19 08:41:54;;;;;;;13.70;6.50;;;;;;;4.98;65.39;102256.38;4927253;28;96839;-88
2022/01/19 08:44:22;;;;;;;16.90;7.20;;;;;;;5.09;65.27;102244.09;4924565;28;97317;-89
2022/01/19 08:46:49;;;;;;;12.17;6.80;;;;;;;5.15;65.58;102241.69;4944902;28;96873;-89
2022/01/19 08:49:16;;;;;;;12.00;6.70;;;;;;;5.23;65.65;102232.94;4931738;28;96712;-89
2022/01/19 08:51:43;;;;;;;13.70;7.60;;;;;;;5.27;65.83;102241.84;4931023;28;97378;-88
2022/01/19 08:54:09;;;;;;;11.33;6.63;;;;;;;5.33;65.97;102247.56;4944275;28;97330;-90
2022/01/19 08:56:35;;;;;;;11.57;6.97;;;;;;;5.41;66.10;102232.63;4925674;28;96728;-90
2022/01/19 08:59:01;;;;;;;13.47;6.30;;;;;;;5.47;65.78;102239.16;4944217;28;98552;-89
2022/01/19 09:01:27;;;;;;;12.47;6.17;;;;;;;5.52;65.86;102230.47;4931259;28;96959;-88
2022/01/19 09:03:53;;;;;;;7.53;5.50;;;;;;;5.56;65.97;102263.16;4927954;28;96916;-88
2022/01/19 09:06:19;;;;;;;7.23;5.00;;;;;;;5.62;65.97;102218.56;4928230;28;97107;-88
2022/01/19 09:08:45;;;;;;;7.50;5.60;;;;;;;5.66;65.94;102232.91;4924834;28;101953;-88
2022/01/19 09:11:12;;;;;;;11.20;6.87;;;;;;;5.69;66.04;102229.38;4931064;28;97593;-87
2022/01/19 09:13:38;;;;;;;9.80;5.50;;;;;;;5.71;66.11;102205.13;4937162;28;96740;-91
2022/01/19 09:16:05;;;;;;;10.23;6.27;;;;;;;5.70;65.99;102214.50;4936183;28;97424;-90
2022/01/19 09:18:30;;;;;;;9.03;5.63;;;;;;;5.77;66.03;102208.91;4951168;28;97361;-89
2022/01/19 09:20:56;;;;;;;7.33;5.60;;;;;;;5.79;66.10;102212.00;4932186;28;96762;-91
2022/01/19 09:23:22;;;;;;;7.53;5.67;;;;;;;5.83;66.11;102217.41;4931552;28;97023;-88
2022/01/19 09:25:47;;;;;;;7.63;5.70;;;;;;;5.89;66.07;102194.66;4925673;28;96948;-87
2022/01/19 09:28:13;;;;;;;7.27;5.33;;;;;;;5.93;66.01;102195.34;4927888;28;97583;-88
2022/01/19 09:30:41;;;;;;;7.97;6.00;;;;;;;5.93;65.89;102203.53;4941407;28;97519;-90
2022/01/19 09:33:20;;;;;;;9.63;5.50;;;;;;;5.98;65.89;102203.03;4939944;28;98852;-91
2022/01/19 09:35:53;;;;;;;10.10;5.43;;;;;;;6.02;66.02;102178.38;4921413;28;98031;-90
2022/01/19 09:38:23;;;;;;;6.70;4.80;;;;;;;6.08;66.05;102184.88;4942308;28;96817;-88
2022/01/19 09:40:50;;;;;;;7.83;5.07;;;;;;;6.10;66.07;102192.66;4926723;28;97361;-89
2022/01/19 09:43:21;;;;;;;7.17;5.30;;;;;;;6.12;65.81;102174.63;4927059;28;97531;-90
2022/01/19 09:45:53;;;;;;;8.20;5.40;;;;;;;6.13;66.16;102164.50;4929794;28;97873;-89
2022/01/19 09:48:20;;;;;;;9.23;6.00;;;;;;;6.14;65.64;102163.31;4942498;28;101981;-88
2022/01/19 09:50:47;;;;;;;10.57;5.97;;;;;;;6.16;66.16;102180.03;4926232;28;96960;-90
2022/01/19 09:53:14;;;;;;;7.20;5.37;;;;;;;6.16;65.94;102152.72;4940906;28;96939;-91
2022/01/19 09:55:41;;;;;;;7.13;4.83;;;;;;;6.13;65.84;102156.28;4925098;28;96855;-91
2022/01/19 09:58:09;;;;;;;5.93;5.00;;;;;;;6.16;66.02;102158.94;4918064;28;99493;-91
2022/01/19 10:00:36;;;;;;;7.17;5.30;;;;;;;6.22;65.77;102143.59;4926587;28;99381;-89
2022/01/19 10:03:24;;;;;;;7.20;5.07;;;;;;;6.24;65.70;102143.16;4937907;28;97160;-90
2022/01/19 10:06:11;;;;;;;4.87;3.87;;;;;;;6.22;65.54;102129.94;4908964;28;97056;-89
2022/01/19 10:08:38;;;;;;;7.30;5.10;;;;;;;6.26;65.85;102130.63;4924385;28;101082;-90
2022/01/19 10:11:12;;;;;;;9.30;4.60;;;;;;;6.33;65.93;102144.13;4925168;28;97368;-89
2022/01/19 10:19:27;;;;;;;5.40;4.13;;;;;;;6.44;65.69;102114.56;4926882;28;96871;-90
2022/01/19 10:21:58;;;;;;;5.27;4.73;;;;;;;6.45;65.62;102105.16;4925779;28;103969;-91
2022/01/19 10:25:03;;;;;;;5.43;4.93;;;;;;;6.45;65.50;102088.75;4918116;28;98178;-90
2022/01/19 10:27:39;;;;;;;4.77;4.37;;;;;;;6.46;65.77;102084.84;4929443;28;96950;-91
2022/01/19 10:30:06;;;;;;;7.93;4.87;;;;;;;6.49;65.47;102088.66;4918381;28;102660;-89
2022/01/19 10:32:43;;;;;;;6.97;5.17;;;;;;;6.50;65.98;102087.47;4917002;28;96980;-91
2022/01/19 10:35:30;;;;;;;5.20;4.70;;;;;;;6.53;65.44;102083.88;4921207;28;97124;-91
2022/01/19 10:38:16;;;;;;;8.80;5.37;;;;;;;6.54;65.66;102085.41;4925877;28;96779;-90
2022/01/19 10:41:04;;;;;;;6.20;5.40;;;;;;;6.56;65.56;102077.53;4922906;28;100975;-89
2022/01/19 10:43:34;;;;;;;7.10;5.10;;;;;;;6.61;65.77;102074.28;4913658;28;98518;-88
2022/01/19 10:46:20;;;;;;;9.63;5.47;;;;;;;6.62;65.55;102078.56;4938146;28;96766;-89
2022/01/19 10:48:49;;;;;;;7.10;5.67;;;;;;;6.58;65.81;102064.97;4944426;28;97189;-89
2022/01/19 10:51:21;;;;;;;6.27;5.67;;;;;;;6.60;65.67;102062.59;4923620;28;102099;-90
2022/01/19 10:54:06;;;;;;;8.23;6.20;;;;;;;6.57;65.67;102058.00;4912783;28;102844;-90
2022/01/19 10:56:34;;;;;;;10.07;6.13;;;;;;;6.56;65.77;102056.44;4938508;28;97382;-91
2022/01/19 10:59:03;;;;;;;7.87;6.57;;;;;;;6.58;65.83;102040.38;4923268;28;96796;-90
2022/01/19 11:01:44;;;;;;;10.33;7.83;;;;;;;6.57;65.38;102036.13;4922361;28;97579;-88
2022/01/19 11:04:27;;;;;;;9.17;8.07;;;;;;;6.54;65.37;102031.50;4923084;28;102363;-89
2022/01/19 11:07:02;;;;;;;13.87;8.90;;;;;;;6.51;65.58;102023.41;4942668;28;97356;-87
2022/01/19 11:09:31;;;;;;;12.60;8.40;;;;;;;6.47;65.64;102014.50;4925060;28;97152;-87
2022/01/19 11:12:03;;;;;;;11.93;8.50;;;;;;;6.49;65.90;102012.88;4940466;28;98178;-88
2022/01/19 11:14:30;;;;;;;11.83;9.00;;;;;;;6.46;65.75;102015.72;4916916;28;100051;-88
2022/01/19 11:16:57;;;;;;;10.73;8.47;;;;;;;6.50;65.94;102014.44;4928330;28;96971;-87
2022/01/19 11:19:26;;;;;;;11.23;8.67;;;;;;;6.53;65.72;101996.41;4945429;28;98758;-88
2022/01/19 11:21:59;;;;;;;10.73;8.30;;;;;;;6.61;65.79;101992.25;4929046;28;98833;-89
2022/01/19 11:24:41;;;;;;;14.57;9.87;;;;;;;6.61;65.72;101986.78;4924672;28;98136;-90
2022/01/19 11:27:08;;;;;;;14.63;10.00;;;;;;;6.61;65.76;101968.44;4919577;28;97021;-89
2022/01/19 11:29:38;;;;;;;14.80;9.97;;;;;;;6.61;65.66;101976.63;4940797;28;96935;-89
2022/01/19 11:32:20;;;;;;;12.87;9.50;;;;;;;6.67;65.76;101966.69;4928907;28;97538;-89
2022/01/19 11:34:54;;;;;;;12.83;10.00;;;;;;;6.69;65.47;101972.50;4927234;28;99950;-89
2022/01/19 11:37:43;;;;;;;15.80;11.40;;;;;;;6.68;65.85;101948.31;4924078;28;97099;-89
2022/01/19 11:40:23;;;;;;;12.67;9.50;;;;;;;6.71;65.72;101933.75;4919745;28;98043;-93
2022/01/19 11:43:21;;;;;;;12.30;10.20;;;;;;;6.74;65.75;101941.13;4921165;28;97037;-88
2022/01/19 11:45:48;;;;;;;14.57;10.83;;;;;;;6.73;65.42;101934.09;4922248;28;102558;-90
2022/01/19 11:48:18;;;;;;;13.27;10.60;;;;;;;6.76;65.53;101916.84;4920900;28;97305;-89
2022/01/19 11:50:48;;;;;;;17.00;11.97;;;;;;;6.77;65.79;101896.50;4932477;28;97204;-90
2022/01/19 11:53:16;;;;;;;16.80;12.10;;;;;;;6.79;65.30;101915.97;4941084;28;98046;-87
2022/01/19 11:56:03;;;;;;;15.37;11.37;;;;;;;6.79;65.03;101888.63;4941296;28;100604;-90
2022/01/19 11:58:31;;;;;;;14.30;10.43;;;;;;;6.77;65.37;101889.03;4921032;28;96819;-90
2022/01/19 12:01:00;;;;;;;16.83;12.60;;;;;;;6.77;65.25;101875.38;4937704;28;96913;-88
2022/01/19 12:03:28;;;;;;;13.63;10.90;;;;;;;6.79;65.79;101866.75;4929150;28;99522;-92
2022/01/19 12:05:56;;;;;;;15.03;10.97;;;;;;;6.86;65.69;101865.75;4933019;28;99484;-89
2022/01/19 12:08:35;;;;;;;14.70;11.60;;;;;;;6.87;65.22;101868.06;4927147;28;98484;-88
2022/01/19 12:11:23;;;;;;;14.43;11.00;;;;;;;6.87;64.93;101879.00;4924546;28;96898;-89
2022/01/19 12:14:21;;;;;;;15.20;10.97;;;;;;;6.84;64.95;101879.84;4939495;28;96767;-86
2022/01/19 12:17:00;;;;;;;14.47;11.27;;;;;;;6.83;65.57;101878.34;4925475;28;102024;-91
2022/01/19 12:19:46;;;;;;;19.07;12.17;;;;;;;6.81;65.47;101870.53;4919163;28;97079;-91
2022/01/19 12:22:28;;;;;;;17.63;11.47;;;;;;;6.82;65.50;101852.19;4904109;28;97421;-89
2022/01/19 12:24:59;;;;;;;16.03;12.57;;;;;;;6.83;65.45;101845.50;4927027;28;100493;-91
2022/01/19 12:27:37;;;;;;;18.00;13.33;;;;;;;6.84;65.63;101854.50;4913317;28;98687;-87
2022/01/19 12:30:16;;;;;;;18.30;12.60;;;;;;;6.85;65.18;101823.19;4910029;28;96918;-89
2022/01/19 12:32:48;;;;;;;16.13;12.27;;;;;;;6.86;65.43;101830.94;4932101;28;97246;-91
2022/01/19 12:35:41;;;;;;;16.27;12.37;;;;;;;6.89;65.11;101808.19;4934830;28;102842;-89
2022/01/19 12:38:23;;;;;;;18.13;12.23;;;;;;;6.90;65.29;101798.81;4940472;28;100643;-90
2022/01/19 12:40:57;;;;;;;15.80;11.40;;;;;;;6.96;65.27;101793.53;4918588;28;97811;-89
2022/01/19 12:43:38;;;;;;;14.30;11.27;;;;;;;6.99;65.17;101793.41;4921350;28;96794;-90
2022/01/19 12:46:08;;;;;;;15.30;11.33;;;;;;;7.04;65.47;101781.16;4904213;28;101501;-91
2022/01/19 12:48:39;;;;;;;14.10;11.00;;;;;;;7.06;65.35;101779.50;4920644;28;98385;-91
2022/01/19 12:51:07;;;;;;;15.87;11.67;;;;;;;7.08;65.14;101771.63;4931348;28;97005;-91
2022/01/19 12:53:33;;;;;;;16.27;12.07;;;;;;;7.10;65.57;101768.47;4912397;28;96896;-90
2022/01/19 12:56:03;;;;;;;18.40;11.87;;;;;;;7.09;65.35;101764.19;4908955;28;97220;-90
2022/01/19 12:58:36;;;;;;;16.00;11.93;;;;;;;7.06;65.36;101751.38;4919115;28;97283;-91
2022/01/19 13:01:07;;;;;;;16.40;11.87;;;;;;;7.07;65.20;101756.44;4931305;28;96791;-91
2022/01/19 13:03:42;;;;;;;14.57;10.60;;;;;;;7.12;65.36;101738.69;4914139;28;96948;-93
2022/01/19 13:06:13;;;;;;;14.23;10.50;;;;;;;7.13;65.54;101743.72;4936570;28;98778;-88
2022/01/19 13:08:49;;;;;;;13.50;10.00;;;;;;;7.18;65.26;101726.75;4916892;28;97728;-90